createdAt,value
2023-02-15T00:00:12.388Z,2.26
2023-02-15T00:05:38.071Z,2.25
2023-02-15T00:10:43.578Z,2.31
2023-02-15T00:15:49.260Z,2.37
2023-02-15T00:20:54.795Z,2.37
2023-02-15T00:26:09.109Z,2.41
2023-02-15T00:31:15.102Z,2.48
2023-02-15T00:36:20.950Z,2.55
2023-02-15T00:41:28.117Z,2.57
2023-02-15T00:46:34.171Z,2.59
2023-02-15T00:51:40.646Z,2.64
2023-02-15T00:56:46.323Z,2.70
2023-02-15T01:01:58.756Z,2.71
2023-02-15T01:07:07.656Z,2.70
2023-02-15T01:12:13.256Z,2.71
2023-02-15T01:17:18.921Z,2.71
2023-02-15T01:22:24.511Z,2.70
2023-02-15T01:27:31.874Z,2.72
2023-02-15T01:32:37.793Z,2.76
2023-02-15T01:37:43.515Z,2.77
2023-02-15T01:42:53.355Z,2.73
2023-02-15T01:48:04.608Z,2.73
2023-02-15T01:53:14.832Z,2.74
2023-02-15T01:58:22.467Z,2.72
2023-02-15T02:03:39.860Z,2.71
2023-02-15T02:08:45.918Z,2.72
2023-02-15T02:13:52.716Z,2.77
2023-02-15T02:19:41.543Z,2.83
2023-02-15T02:25:18.968Z,2.79
2023-02-15T02:30:58.067Z,2.80
2023-02-15T02:36:15.365Z,2.82
2023-02-15T02:41:27.368Z,2.83
2023-02-15T02:46:40.684Z,2.80
2023-02-15T02:51:46.298Z,2.80
2023-02-15T02:56:54.786Z,2.87
2023-02-15T03:02:07.173Z,2.87
2023-02-15T03:07:17.120Z,2.89
2023-02-15T03:12:25.491Z,2.87
2023-02-15T03:17:36.526Z,2.84
2023-02-15T03:22:47.932Z,2.85
2023-02-15T03:27:59.869Z,2.83
2023-02-15T03:33:08.253Z,2.82
2023-02-15T03:38:18.771Z,2.82
2023-02-15T03:43:32.390Z,2.87
2023-02-15T03:48:41.778Z,2.87
2023-02-15T03:53:50.216Z,2.83
2023-02-15T03:59:14.521Z,2.82
2023-02-15T04:04:25.503Z,2.85
2023-02-15T04:09:48.904Z,2.89
2023-02-15T04:15:13.558Z,2.86
2023-02-15T04:20:38.368Z,2.84
2023-02-15T04:25:44.082Z,2.86
2023-02-15T04:30:50.614Z,2.93
2023-02-15T04:35:57.310Z,2.92
2023-02-15T04:41:03.037Z,2.91
2023-02-15T04:46:08.646Z,2.94
2023-02-15T04:51:14.413Z,2.93
2023-02-15T04:56:20.715Z,2.91
2023-02-15T05:01:26.602Z,2.94
2023-02-15T05:06:32.573Z,2.96
2023-02-15T05:11:38.324Z,2.95
2023-02-15T05:16:43.942Z,2.89
2023-02-15T05:21:49.713Z,2.88
2023-02-15T05:27:14.113Z,2.87
2023-02-15T05:32:19.776Z,2.82
2023-02-15T05:37:25.618Z,2.81
2023-02-15T05:42:31.751Z,2.85
2023-02-15T05:47:37.290Z,2.86
2023-02-15T05:52:43.240Z,2.83
2023-02-15T05:57:49.478Z,2.83
2023-02-15T06:02:55.097Z,2.84
2023-02-15T06:08:01.055Z,2.83
2023-02-15T06:13:06.991Z,2.83
2023-02-15T06:18:12.755Z,2.84
2023-02-15T06:23:18.622Z,2.87
2023-02-15T06:28:26.522Z,2.88
2023-02-15T06:33:34.782Z,2.89
2023-02-15T06:38:40.730Z,2.93
2023-02-15T06:43:46.575Z,2.98
2023-02-15T06:48:52.138Z,3.00
2023-02-15T06:53:57.871Z,3.00
2023-02-15T06:59:03.928Z,3.03
2023-02-15T07:04:09.588Z,3.08
2023-02-15T07:09:15.169Z,3.09
2023-02-15T07:14:21.283Z,3.07
2023-02-15T07:19:27.265Z,3.11
2023-02-15T07:24:33.039Z,3.14
2023-02-15T07:29:38.531Z,3.14
2023-02-15T07:34:44.581Z,3.12
2023-02-15T07:39:50.228Z,3.12
2023-02-15T07:44:56.098Z,3.14
2023-02-15T07:50:01.666Z,3.14
2023-02-15T07:55:09.733Z,3.15
2023-02-15T08:00:17.841Z,3.15
2023-02-15T08:05:23.350Z,3.15
2023-02-15T08:10:48.104Z,3.13
2023-02-15T08:15:53.775Z,3.14
2023-02-15T08:20:59.365Z,3.19
2023-02-15T08:26:05.651Z,3.20
2023-02-15T08:31:13.262Z,3.15
2023-02-15T08:36:20.846Z,3.12
2023-02-15T08:41:30.370Z,3.15
2023-02-15T08:46:38.187Z,3.14
2023-02-15T08:51:44.611Z,3.12
2023-02-15T08:56:51.061Z,3.15
2023-02-15T09:01:57.191Z,3.23
2023-02-15T09:07:05.555Z,3.28
2023-02-15T09:12:11.071Z,3.29
2023-02-15T09:17:16.963Z,3.35
2023-02-15T09:22:22.500Z,3.45
2023-02-15T09:27:28.132Z,3.46
2023-02-15T09:32:34.032Z,3.45
2023-02-15T09:37:39.806Z,3.48
2023-02-15T09:43:23.976Z,3.54
2023-02-15T09:48:43.746Z,3.55
2023-02-15T09:54:12.266Z,3.50
2023-02-15T09:59:29.373Z,3.49
2023-02-15T10:04:51.905Z,3.47
2023-02-15T10:10:09.160Z,3.40
2023-02-15T10:15:29.535Z,3.36
2023-02-15T10:20:47.141Z,3.38
2023-02-15T10:26:01.044Z,3.40
2023-02-15T10:31:14.503Z,3.43
2023-02-15T10:36:33.852Z,3.36
2023-02-15T10:41:52.029Z,3.35
2023-02-15T10:47:17.174Z,3.43
2023-02-15T10:52:33.513Z,3.47
2023-02-15T10:57:50.267Z,3.46
2023-02-15T11:03:12.667Z,3.45
2023-02-15T11:08:19.808Z,3.40
2023-02-15T11:13:35.157Z,3.37
2023-02-15T11:18:44.948Z,3.38
2023-02-15T11:23:52.345Z,3.43
2023-02-15T11:29:02.667Z,3.44
2023-02-15T11:34:18.049Z,3.48
2023-02-15T11:39:29.589Z,3.50
2023-02-15T11:44:38.386Z,3.55
2023-02-15T11:49:46.339Z,3.51
2023-02-15T11:54:53.661Z,3.41
2023-02-15T12:00:08.636Z,3.37
2023-02-15T12:05:18.375Z,3.40
2023-02-15T12:10:27.039Z,3.45
2023-02-15T12:15:36.226Z,3.42
2023-02-15T12:20:42.366Z,3.36
2023-02-15T12:25:55.471Z,3.36
2023-02-15T12:31:04.240Z,3.43
2023-02-15T12:36:18.515Z,3.47
2023-02-15T12:41:27.061Z,3.42
2023-02-15T12:46:37.958Z,3.44
2023-02-15T12:51:49.456Z,3.41
2023-02-15T12:56:55.327Z,3.33
2023-02-15T13:02:10.811Z,3.28
2023-02-15T13:07:17.148Z,3.30
2023-02-15T13:12:27.863Z,3.32
2023-02-15T13:17:36.038Z,3.38
2023-02-15T13:22:44.336Z,3.38
2023-02-15T13:27:55.878Z,3.41
2023-02-15T13:33:07.010Z,3.40
2023-02-15T13:38:28.732Z,3.33
2023-02-15T13:43:48.366Z,3.31
2023-02-15T13:49:10.589Z,3.33
2023-02-15T13:54:44.283Z,3.29
2023-02-15T14:00:06.425Z,3.22
2023-02-15T14:05:36.871Z,3.22
2023-02-15T14:10:50.378Z,3.19
2023-02-15T14:16:04.164Z,3.14
2023-02-15T14:21:16.454Z,3.12
2023-02-15T14:26:35.294Z,3.11
2023-02-15T14:31:47.060Z,3.05
2023-02-15T14:36:54.694Z,2.99
2023-02-15T14:42:05.793Z,2.94
2023-02-15T14:47:18.699Z,2.91
2023-02-15T14:52:24.436Z,2.87
2023-02-15T14:57:38.900Z,2.81
2023-02-15T15:02:49.662Z,2.87
2023-02-15T15:07:55.545Z,2.90
2023-02-15T15:13:38.973Z,2.87
2023-02-15T15:18:49.099Z,2.83
2023-02-15T15:23:55.600Z,2.83
2023-02-15T15:29:03.328Z,2.81
2023-02-15T15:34:39.902Z,2.79
2023-02-15T15:40:15.582Z,2.79
2023-02-15T15:46:06.233Z,2.80
2023-02-15T15:51:19.404Z,2.77
2023-02-15T15:56:29.116Z,2.73
2023-02-15T16:01:40.619Z,2.69
2023-02-15T16:06:46.441Z,2.68
2023-02-15T16:11:54.311Z,2.65
2023-02-15T16:17:02.893Z,2.62
2023-02-15T16:22:14.750Z,2.59
2023-02-15T16:27:44.745Z,2.57
2023-02-15T16:32:50.501Z,2.56
2023-02-15T16:37:56.134Z,2.53
2023-02-15T16:43:05.891Z,2.55
2023-02-15T16:48:17.740Z,2.57
2023-02-15T16:53:26.578Z,2.57
2023-02-15T16:58:38.385Z,2.53
2023-02-15T17:03:49.066Z,2.48
2023-02-15T17:09:03.569Z,2.41
2023-02-15T17:14:27.687Z,2.36
2023-02-15T17:19:44.039Z,2.34
2023-02-15T17:24:59.158Z,2.32
2023-02-15T17:30:14.513Z,2.26
2023-02-15T17:35:22.645Z,2.25
2023-02-15T17:40:30.606Z,2.26
2023-02-15T17:45:47.488Z,2.23
2023-02-15T17:50:54.041Z,2.20
2023-02-15T17:55:59.877Z,2.22
2023-02-15T18:01:31.192Z,2.23
2023-02-15T18:06:59.041Z,2.20
2023-02-15T18:12:15.618Z,2.18
2023-02-15T18:17:27.464Z,2.18
2023-02-15T18:22:34.094Z,2.17
2023-02-15T18:27:39.864Z,2.17
2023-02-15T18:32:46.566Z,2.19
2023-02-15T18:37:54.090Z,2.17
2023-02-15T18:42:59.726Z,2.13
2023-02-15T18:48:08.362Z,2.11
2023-02-15T18:53:20.504Z,2.11
2023-02-15T18:58:28.114Z,2.10
2023-02-15T19:03:33.834Z,2.09
2023-02-15T19:08:39.923Z,2.09
2023-02-15T19:13:46.189Z,2.10
2023-02-15T19:18:51.911Z,2.09
2023-02-15T19:24:02.073Z,2.11
2023-02-15T19:29:10.373Z,2.14
2023-02-15T19:34:18.007Z,2.16
2023-02-15T19:39:30.212Z,2.14
2023-02-15T19:44:35.929Z,2.19
2023-02-15T19:49:44.056Z,2.22
2023-02-15T19:54:50.646Z,2.20
2023-02-15T19:59:56.373Z,2.15
2023-02-15T20:05:02.503Z,2.09
2023-02-15T20:10:16.889Z,2.10
2023-02-15T20:15:24.786Z,2.05
2023-02-15T20:20:34.681Z,1.94
2023-02-15T20:25:40.438Z,1.80
2023-02-15T20:30:46.196Z,1.67
2023-02-15T20:35:52.746Z,1.65
2023-02-15T20:41:18.949Z,1.61
2023-02-15T20:46:24.616Z,1.47
2023-02-15T20:51:30.348Z,1.29
2023-02-15T20:56:37.581Z,1.07
2023-02-15T21:01:43.349Z,0.89
2023-02-15T21:06:49.166Z,0.77
2023-02-15T21:11:56.698Z,0.68
2023-02-15T21:17:03.161Z,0.54
2023-02-15T21:22:12.065Z,0.37
2023-02-15T21:27:18.567Z,0.29
2023-02-15T21:32:24.511Z,0.23
2023-02-15T21:37:35.485Z,0.12
2023-02-15T21:43:00.016Z,-0.00
2023-02-15T21:48:05.817Z,-0.15
2023-02-15T21:53:17.684Z,-0.26
2023-02-15T21:58:26.229Z,-0.31
2023-02-15T22:03:35.645Z,-0.30
2023-02-15T22:08:41.885Z,-0.26
2023-02-15T22:13:48.624Z,-0.30
2023-02-15T22:18:54.196Z,-0.39
2023-02-15T22:23:59.924Z,-0.47
2023-02-15T22:29:05.897Z,-0.48
2023-02-15T22:34:24.733Z,-0.50
2023-02-15T22:39:30.267Z,-0.65
2023-02-15T22:44:35.977Z,-0.74
2023-02-15T22:49:42.808Z,-0.81
2023-02-15T22:54:48.597Z,-0.88
2023-02-15T22:59:54.238Z,-0.86
2023-02-15T23:05:00.029Z,-0.84
2023-02-15T23:10:06.769Z,-0.89
2023-02-15T23:15:13.054Z,-0.93
2023-02-15T23:20:19.129Z,-1.02
2023-02-15T23:25:27.897Z,-1.03
2023-02-15T23:30:34.105Z,-1.01
2023-02-15T23:35:40.052Z,-1.06
2023-02-15T23:41:07.509Z,-1.10
2023-02-15T23:46:24.219Z,-1.08
2023-02-15T23:51:32.197Z,-1.08
2023-02-15T23:56:38.454Z,-1.13
